createdAt,value
2022-12-09T00:03:20.121Z,8.18
2022-12-09T00:08:21.177Z,7.88
2022-12-09T00:13:15.337Z,7.47
2022-12-09T00:18:14.907Z,7.38
2022-12-09T00:23:08.942Z,7.75
2022-12-09T00:28:02.607Z,7.28
2022-12-09T00:32:56.798Z,6.97
2022-12-09T00:37:49.966Z,7.35
2022-12-09T00:42:43.712Z,7.10
2022-12-09T00:47:43.242Z,6.32
2022-12-09T00:52:37.068Z,6.25
2022-12-09T00:57:32.079Z,6.68
2022-12-09T01:02:26.268Z,7.20
2022-12-09T01:07:19.377Z,6.20
2022-12-09T01:12:13.952Z,5.47
2022-12-09T01:17:08.690Z,6.05
2022-12-09T01:22:01.165Z,6.10
2022-12-09T01:26:53.669Z,6.05
2022-12-09T01:31:48.543Z,5.97
2022-12-09T01:36:41.580Z,5.68
2022-12-09T01:41:35.376Z,6.18
2022-12-09T01:46:30.052Z,5.38
2022-12-09T01:51:23.657Z,5.85
2022-12-09T01:56:24.754Z,5.47
2022-12-09T02:01:19.049Z,5.47
2022-12-09T02:06:12.983Z,5.38
2022-12-09T02:11:14.272Z,5.35
2022-12-09T02:16:18.769Z,5.45
2022-12-09T02:26:29.790Z,5.53
2022-12-09T02:31:51.803Z,5.20
2022-12-09T02:37:09.361Z,4.88
2022-12-09T02:42:04.753Z,5.10
2022-12-09T02:47:01.114Z,4.65
2022-12-09T02:51:57.073Z,4.93
2022-12-09T02:56:57.084Z,4.88
2022-12-09T03:02:08.336Z,4.93
2022-12-09T03:07:16.992Z,4.65
2022-12-09T03:12:15.289Z,4.95
2022-12-09T03:17:23.641Z,5.03
2022-12-09T03:22:20.896Z,5.07
2022-12-09T03:27:20.081Z,4.60
2022-12-09T03:32:16.433Z,4.68
2022-12-09T03:37:13.252Z,4.97
2022-12-09T03:42:15.275Z,4.82
2022-12-09T03:47:09.813Z,4.72
2022-12-09T03:52:21.775Z,4.72
2022-12-09T03:57:19.222Z,4.93
2022-12-09T04:02:13.493Z,4.53
2022-12-09T04:07:07.523Z,5.10
2022-12-09T04:12:00.991Z,4.38
2022-12-09T04:16:54.157Z,4.63
2022-12-09T04:21:48.289Z,4.93
2022-12-09T04:26:41.998Z,4.18
2022-12-09T04:31:35.738Z,4.53
2022-12-09T04:36:28.628Z,4.78
2022-12-09T04:41:22.150Z,5.38
2022-12-09T04:46:18.024Z,4.30
2022-12-09T04:51:13.790Z,4.78
2022-12-09T04:56:09.470Z,4.68
2022-12-09T05:01:11.439Z,4.50
2022-12-09T05:06:07.066Z,4.35
2022-12-09T05:11:00.919Z,4.38
2022-12-09T05:15:59.370Z,4.55
2022-12-09T05:21:12.567Z,4.88
2022-12-09T05:26:09.427Z,5.13
2022-12-09T05:31:07.780Z,5.20
2022-12-09T05:36:01.785Z,4.93
2022-12-09T05:40:55.866Z,4.68
2022-12-09T05:45:49.126Z,4.88
2022-12-09T05:50:45.038Z,4.68
2022-12-09T05:55:42.263Z,5.05
2022-12-09T06:00:35.994Z,5.28
2022-12-09T06:05:30.181Z,4.85
2022-12-09T06:10:24.267Z,5.13
2022-12-09T06:15:21.627Z,5.75
2022-12-09T06:20:16.411Z,5.05
2022-12-09T06:25:11.046Z,5.45
2022-12-09T06:30:05.966Z,6.07
2022-12-09T06:34:59.758Z,6.22
2022-12-09T06:39:53.844Z,6.47
2022-12-09T06:44:47.823Z,6.63
2022-12-09T06:49:41.954Z,7.28
2022-12-09T06:54:36.001Z,6.75
2022-12-09T06:59:29.449Z,7.15
2022-12-09T07:04:24.116Z,6.65
2022-12-09T07:09:21.118Z,6.65
2022-12-09T07:14:16.279Z,7.85
2022-12-09T07:19:20.652Z,6.82
2022-12-09T07:24:15.255Z,6.90
2022-12-09T07:29:08.655Z,7.10
2022-12-09T07:34:03.011Z,8.02
2022-12-09T07:38:58.619Z,7.32
2022-12-09T07:43:52.264Z,7.03
2022-12-09T07:48:46.403Z,6.93
2022-12-09T07:53:41.264Z,6.90
2022-12-09T07:58:35.581Z,6.60
2022-12-09T08:03:29.927Z,7.25
2022-12-09T08:08:24.529Z,6.65
2022-12-09T08:13:19.468Z,6.13
2022-12-09T08:18:13.741Z,6.25
2022-12-09T08:23:11.027Z,6.00
2022-12-09T08:28:05.497Z,5.80
2022-12-09T08:32:59.026Z,5.82
2022-12-09T08:37:52.778Z,5.38
2022-12-09T08:42:46.479Z,6.40
2022-12-09T08:47:40.269Z,5.75
2022-12-09T08:52:40.650Z,5.40
2022-12-09T08:57:35.980Z,5.43
2022-12-09T09:02:29.840Z,5.50
2022-12-09T09:07:23.819Z,5.88
2022-12-09T09:12:18.106Z,8.68
2022-12-09T09:17:11.892Z,12.98
2022-12-09T09:22:05.059Z,10.38
2022-12-09T09:26:58.968Z,8.73
2022-12-09T09:31:55.152Z,8.85
2022-12-09T09:36:49.203Z,9.30
2022-12-09T09:41:56.396Z,8.57
2022-12-09T09:46:51.693Z,8.57
2022-12-09T09:51:46.091Z,7.57
2022-12-09T09:57:07.841Z,8.05
2022-12-09T10:02:13.800Z,7.55
2022-12-09T10:07:19.097Z,6.30
2022-12-09T10:12:27.209Z,6.93
2022-12-09T10:17:24.062Z,8.23
2022-12-09T10:22:25.687Z,8.18
2022-12-09T10:27:43.994Z,9.68
2022-12-09T10:32:40.146Z,8.25
2022-12-09T10:37:36.880Z,8.10
2022-12-09T10:42:53.597Z,8.60
2022-12-09T10:47:52.407Z,8.38
2022-12-09T10:52:47.370Z,7.60
2022-12-09T10:57:41.354Z,7.35
2022-12-09T11:02:36.595Z,7.90
2022-12-09T11:07:31.358Z,6.38
2022-12-09T11:12:36.692Z,6.50
2022-12-09T11:17:38.393Z,6.05
2022-12-09T11:22:41.866Z,5.50
2022-12-09T11:27:36.132Z,5.50
2022-12-09T11:33:01.451Z,5.03
2022-12-09T11:38:33.416Z,4.88
2022-12-09T11:43:48.866Z,4.05
2022-12-09T11:48:51.309Z,4.32
2022-12-09T11:53:46.570Z,4.30
2022-12-09T11:59:05.509Z,5.10
2022-12-09T12:04:06.830Z,4.03
2022-12-09T12:09:06.565Z,4.22
2022-12-09T12:14:17.439Z,4.50
2022-12-09T12:19:32.382Z,4.40
2022-12-09T12:24:39.805Z,5.00
2022-12-09T12:29:36.030Z,4.68
2022-12-09T12:34:48.010Z,5.03
2022-12-09T12:40:04.040Z,4.65
2022-12-09T12:45:39.205Z,5.53
2022-12-09T12:50:44.431Z,5.03
2022-12-09T12:56:04.046Z,4.45
2022-12-09T13:01:15.579Z,4.18
2022-12-09T13:06:14.129Z,4.25
2022-12-09T13:11:14.841Z,3.60
2022-12-09T13:16:28.364Z,3.90
2022-12-09T13:21:25.839Z,3.58
2022-12-09T13:26:24.842Z,3.60
2022-12-09T13:31:22.773Z,2.92
2022-12-09T13:36:46.777Z,3.45
2022-12-09T13:42:02.761Z,2.97
2022-12-09T13:47:14.981Z,2.10
2022-12-09T13:52:10.049Z,1.80
2022-12-09T13:57:24.370Z,1.70
2022-12-09T14:02:40.436Z,1.70
2022-12-09T14:07:36.349Z,1.70
2022-12-09T14:12:29.633Z,1.42
2022-12-09T14:17:28.998Z,1.55
2022-12-09T14:22:21.760Z,1.15
2022-12-09T14:27:22.409Z,1.67
2022-12-09T14:32:29.851Z,1.20
2022-12-09T14:37:36.707Z,0.80
2022-12-09T14:42:29.116Z,0.80
2022-12-09T14:47:26.780Z,0.55
2022-12-09T14:52:32.362Z,0.60
2022-12-09T14:57:29.795Z,0.60
2022-12-09T15:02:27.194Z,0.30
2022-12-09T15:07:27.400Z,0.45
2022-12-09T15:12:44.602Z,0.40
2022-12-09T15:17:55.181Z,0.20
2022-12-09T15:22:55.215Z,0.17
2022-12-09T15:28:13.477Z,0.30
2022-12-09T15:33:19.813Z,0.25
2022-12-09T15:38:20.253Z,0.30
2022-12-09T15:43:21.338Z,0.30
2022-12-09T15:48:26.134Z,0.30
2022-12-09T15:53:53.716Z,0.20
2022-12-09T15:59:00.667Z,0.32
2022-12-09T16:04:03.500Z,1.00
2022-12-09T16:09:00.621Z,1.15
2022-12-09T16:14:06.918Z,1.40
2022-12-09T16:19:07.109Z,1.10
2022-12-09T16:24:15.669Z,0.95
2022-12-09T16:29:49.330Z,0.80
2022-12-09T16:34:43.777Z,1.17
2022-12-09T16:39:38.523Z,1.30
2022-12-09T16:44:37.114Z,1.38
2022-12-09T16:49:31.126Z,1.45
2022-12-09T16:54:28.013Z,1.45
2022-12-09T16:59:21.914Z,1.30
2022-12-09T17:04:28.286Z,6.75
2022-12-09T17:09:21.235Z,7.32
2022-12-09T17:14:15.342Z,5.40
2022-12-09T17:19:08.700Z,4.50
2022-12-09T17:24:02.754Z,3.20
2022-12-09T17:29:01.657Z,3.28
2022-12-09T17:33:56.553Z,3.30
2022-12-09T17:38:50.686Z,2.92
2022-12-09T17:43:43.964Z,2.72
2022-12-09T17:48:39.527Z,2.33
2022-12-09T17:53:33.116Z,2.45
2022-12-09T17:58:27.384Z,2.80
2022-12-09T18:03:39.176Z,2.28
2022-12-09T18:08:34.127Z,2.13
2022-12-09T18:13:28.862Z,2.05
2022-12-09T18:31:57.660Z,3.70
2022-12-09T18:36:50.637Z,3.20
2022-12-09T18:41:46.388Z,3.00
2022-12-09T18:46:41.555Z,2.80
2022-12-09T18:51:35.023Z,2.80
2022-12-09T18:56:35.213Z,2.67
2022-12-09T19:01:31.976Z,2.10
2022-12-09T19:06:30.960Z,2.40
2022-12-09T19:11:28.729Z,2.70
2022-12-09T19:16:24.203Z,4.50
2022-12-09T19:21:21.726Z,5.90
2022-12-09T19:26:19.844Z,7.07
2022-12-09T19:31:15.677Z,5.65
2022-12-09T19:36:12.265Z,6.15
2022-12-09T19:41:05.057Z,6.70
2022-12-09T19:46:06.954Z,4.72
2022-12-09T19:51:04.186Z,4.32
2022-12-09T19:56:02.029Z,3.78
2022-12-09T20:00:55.626Z,3.03
2022-12-09T20:05:53.370Z,3.20
2022-12-09T20:10:52.129Z,2.40
2022-12-09T20:15:45.678Z,2.38
2022-12-09T20:20:43.015Z,1.92
2022-12-09T20:25:39.456Z,1.70
2022-12-09T20:30:33.213Z,1.60
2022-12-09T20:35:27.923Z,1.35
2022-12-09T20:40:21.849Z,1.48
2022-12-09T20:45:15.694Z,3.53
2022-12-09T20:50:10.978Z,2.05
2022-12-09T20:55:04.473Z,1.85
2022-12-09T20:59:57.871Z,1.80
2022-12-09T21:04:51.821Z,1.75
2022-12-09T21:09:46.154Z,1.73
2022-12-09T21:14:39.768Z,2.40
2022-12-09T21:19:34.725Z,1.42
2022-12-09T21:24:27.347Z,1.40
2022-12-09T21:29:20.406Z,1.30
2022-12-09T21:34:14.223Z,1.38
2022-12-09T21:39:08.022Z,1.55
2022-12-09T21:44:03.310Z,1.63
2022-12-09T21:49:03.891Z,1.52
2022-12-09T21:53:58.164Z,1.40
2022-12-09T21:58:56.976Z,2.20
2022-12-09T22:03:50.974Z,1.40
2022-12-09T22:08:46.761Z,1.77
2022-12-09T22:13:41.116Z,1.83
2022-12-09T22:18:39.858Z,1.95
2022-12-09T22:23:35.511Z,2.10
2022-12-09T22:28:32.370Z,1.70
2022-12-09T22:33:25.435Z,1.77
2022-12-09T22:38:20.072Z,1.88
2022-12-09T22:43:17.322Z,1.92
2022-12-09T22:48:17.721Z,1.70
2022-12-09T22:53:11.707Z,2.42
2022-12-09T22:58:05.595Z,1.70
2022-12-09T23:03:00.225Z,1.88
2022-12-09T23:07:53.953Z,2.00
2022-12-09T23:12:47.213Z,1.77
2022-12-09T23:17:40.607Z,1.85
2022-12-09T23:22:34.830Z,2.10
2022-12-09T23:27:28.755Z,1.60
2022-12-09T23:32:22.766Z,1.63
2022-12-09T23:37:15.335Z,1.67
2022-12-09T23:42:09.351Z,1.98
2022-12-09T23:47:03.663Z,1.77
2022-12-09T23:51:56.965Z,1.52
2022-12-09T23:56:50.865Z,1.70
